Time;durP1;ratioP1;P1;durP2;ratioP2;P2;SDS_P1;SDS_P2;PMS_P1;PMS_P2;Temp;Humidity;BMP_temperature;BMP_pressure;BME280_temperature;BME280_humidity;BME280_pressure;Samples;Min_cycle;Max_cycle;Signal;HPM_P1;HPM_P2
2022/07/04 00:01:49;;;;;;;3.98;3.40;;;;;;;19.00;100.00;100087.34;1659898;86;21089;-76
2022/07/04 00:04:16;;;;;;;7.97;3.80;;;;;;;18.96;100.00;100091.06;1660058;85;21099;-77
2022/07/04 00:06:43;;;;;;;4.60;3.70;;;;;;;18.92;100.00;100092.05;1659793;86;21038;-76
2022/07/04 00:09:11;;;;;;;8.63;4.20;;;;;;;18.90;100.00;100093.35;1659874;86;21512;-77
2022/07/04 00:11:39;;;;;;;6.37;3.98;;;;;;;18.88;100.00;100084.52;1660017;86;21026;-77
2022/07/04 00:14:06;;;;;;;9.23;4.37;;;;;;;18.85;100.00;100084.42;1659960;86;21576;-76
2022/07/04 00:16:34;;;;;;;9.73;4.05;;;;;;;18.83;100.00;100085.19;1660142;86;21133;-76
2022/07/04 00:19:02;;;;;;;8.93;4.62;;;;;;;18.83;100.00;100085.73;1660020;85;21054;-76
2022/07/04 00:21:30;;;;;;;6.35;4.08;;;;;;;18.81;100.00;100087.28;1660069;85;21098;-77
2022/07/04 00:23:57;;;;;;;9.45;4.35;;;;;;;18.78;100.00;100085.81;1659871;86;21065;-77
2022/07/04 00:26:24;;;;;;;6.40;4.00;;;;;;;18.74;100.00;100083.77;1660126;86;21023;-79
2022/07/04 00:28:51;;;;;;;7.35;3.90;;;;;;;18.72;100.00;100084.52;1659940;86;21090;-78
2022/07/04 00:31:18;;;;;;;6.47;3.83;;;;;;;18.69;100.00;100082.22;1659972;85;21073;-78
2022/07/04 00:33:45;;;;;;;6.50;4.08;;;;;;;18.67;100.00;100080.25;1659887;86;21489;-77
2022/07/04 00:36:11;;;;;;;8.38;4.33;;;;;;;18.65;100.00;100085.94;1660218;86;21002;-77
2022/07/04 00:38:39;;;;;;;6.20;4.00;;;;;;;18.63;100.00;100083.10;1659863;85;21516;-77
2022/07/04 00:41:06;;;;;;;5.47;3.58;;;;;;;18.60;100.00;100078.38;1660090;85;21020;-76
2022/07/04 00:43:33;;;;;;;6.47;3.83;;;;;;;18.56;100.00;100081.27;1659916;86;21083;-77
2022/07/04 00:46:05;;;;;;;10.58;4.53;;;;;;;18.53;100.00;100083.08;1660119;86;21011;-77
2022/07/04 00:48:32;;;;;;;6.62;4.00;;;;;;;18.48;100.00;100083.44;1672473;84;21085;-77
2022/07/04 00:51:00;;;;;;;4.55;3.70;;;;;;;18.42;100.00;100082.44;1694079;84;21041;-77
2022/07/04 00:53:26;;;;;;;8.15;3.72;;;;;;;18.36;100.00;100075.95;1694361;84;21065;-77
2022/07/04 00:55:54;;;;;;;6.87;3.95;;;;;;;18.30;100.00;100071.34;1686080;84;21085;-78
2022/07/04 00:58:22;;;;;;;9.40;4.05;;;;;;;18.25;100.00;100073.08;1669670;86;21046;-77
2022/07/04 01:00:49;;;;;;;5.80;4.03;;;;;;;18.20;100.00;100074.58;1669694;86;20990;-77
2022/07/04 01:03:16;;;;;;;10.32;4.40;;;;;;;18.14;100.00;100079.55;1669418;86;21059;-78
2022/07/04 01:05:43;;;;;;;6.67;3.90;;;;;;;18.09;100.00;100076.64;1669741;86;21005;-78
2022/07/04 01:08:10;;;;;;;5.50;3.85;;;;;;;18.06;100.00;100074.86;1669424;86;21082;-77
2022/07/04 01:10:37;;;;;;;6.78;4.15;;;;;;;18.01;100.00;100063.23;1669758;85;20994;-77
2022/07/04 01:13:04;;;;;;;7.20;4.05;;;;;;;17.98;100.00;100063.13;1669669;86;21057;-77
2022/07/04 01:15:31;;;;;;;7.12;4.22;;;;;;;17.95;100.00;100057.25;1669394;86;21014;-78
2022/07/04 01:17:58;;;;;;;8.18;4.50;;;;;;;17.91;100.00;100055.48;1669768;86;21033;-78
2022/07/04 01:20:25;;;;;;;5.47;3.83;;;;;;;17.90;100.00;100055.70;1669673;86;21014;-78
2022/07/04 01:22:51;;;;;;;6.95;4.10;;;;;;;17.87;100.00;100053.42;1669771;86;21484;-77
2022/07/04 01:25:18;;;;;;;7.78;3.87;;;;;;;17.82;100.00;100056.77;1669397;86;21041;-77
2022/07/04 01:27:47;;;;;;;8.00;4.10;;;;;;;17.79;100.00;100048.45;1669793;85;21037;-77
2022/07/04 01:30:14;;;;;;;7.65;4.10;;;;;;;17.79;100.00;100050.36;1669404;86;21643;-78
2022/07/04 01:32:42;;;;;;;4.75;3.85;;;;;;;17.78;100.00;100050.91;1669574;86;21032;-78
2022/07/04 01:35:10;;;;;;;6.65;3.87;;;;;;;17.78;100.00;100048.70;1669761;86;21042;-78
2022/07/04 01:37:38;;;;;;;6.15;3.92;;;;;;;17.78;100.00;100045.97;1669770;86;21053;-77
2022/07/04 01:40:06;;;;;;;8.20;4.08;;;;;;;17.76;100.00;100042.08;1669687;85;21053;-78
2022/07/04 01:42:33;;;;;;;7.35;4.08;;;;;;;17.76;100.00;100050.28;1669722;85;20982;-77
2022/07/04 01:45:00;;;;;;;9.50;4.15;;;;;;;17.75;100.00;100045.86;1669533;86;21042;-77
2022/07/04 01:47:27;;;;;;;9.13;4.40;;;;;;;17.73;100.00;100049.34;1669661;85;21081;-77
2022/07/04 01:49:54;;;;;;;8.58;4.10;;;;;;;17.72;100.00;100050.92;1688282;84;21025;-77
2022/07/04 01:52:21;;;;;;;8.83;3.98;;;;;;;17.68;100.00;100040.95;1677259;85;21029;-77
2022/07/04 01:54:48;;;;;;;7.37;4.12;;;;;;;17.64;100.00;100032.34;1673718;86;21554;-77
2022/07/04 01:57:15;;;;;;;8.08;4.22;;;;;;;17.60;100.00;100037.09;1674029;86;21006;-77
2022/07/04 02:02:27;;;;;;;7.58;3.90;;;;;;;17.51;100.00;100032.42;1674182;86;21049;-77
2022/07/04 02:04:53;;;;;;;8.53;4.00;;;;;;;17.49;100.00;100041.88;1674064;84;21487;-76
2022/07/04 02:07:20;;;;;;;6.83;3.58;;;;;;;17.48;100.00;100040.22;1673816;86;21022;-78
2022/07/04 02:09:47;;;;;;;9.33;4.10;;;;;;;17.48;100.00;100036.13;1673734;86;21068;-77
2022/07/04 02:15:00;;;;;;;6.45;3.50;;;;;;;17.50;100.00;100039.47;1673996;86;21548;-76
2022/07/04 02:17:27;;;;;;;7.15;3.65;;;;;;;17.52;100.00;100034.09;1674127;86;21144;-77
2022/07/04 02:19:54;;;;;;;6.83;3.60;;;;;;;17.55;100.00;100034.20;1673842;86;21033;-77
2022/07/04 02:22:21;;;;;;;6.15;3.80;;;;;;;17.56;100.00;100031.75;1673991;86;21081;-77
2022/07/04 02:24:49;;;;;;;5.10;3.52;;;;;;;17.59;100.00;100036.80;1673756;86;21508;-77
2022/07/04 02:27:16;;;;;;;6.25;3.77;;;;;;;17.61;100.00;100036.87;1674021;86;20994;-75
2022/07/04 02:29:43;;;;;;;6.60;3.62;;;;;;;17.64;100.00;100034.25;1673953;85;21069;-77
2022/07/04 02:32:10;;;;;;;8.25;4.28;;;;;;;17.66;100.00;100028.03;1674078;86;21488;-77
2022/07/04 02:34:37;;;;;;;8.28;4.50;;;;;;;17.70;100.00;100020.23;1673795;86;21026;-78
2022/07/04 02:37:04;;;;;;;8.93;4.60;;;;;;;17.75;100.00;100030.82;1674071;86;21492;-77
2022/07/04 02:39:31;;;;;;;11.88;4.10;;;;;;;17.80;100.00;100035.11;1673874;85;21050;-78
2022/07/04 02:41:58;;;;;;;6.65;4.15;;;;;;;17.84;100.00;100033.60;1674189;86;21065;-76
2022/07/04 02:44:25;;;;;;;7.12;4.17;;;;;;;17.89;100.00;100032.98;1673830;86;21477;-75
2022/07/04 02:46:53;;;;;;;9.43;4.42;;;;;;;17.94;100.00;100032.34;1674121;85;21049;-77
2022/07/04 02:49:20;;;;;;;14.87;4.70;;;;;;;17.98;100.00;100033.57;1671677;85;21034;-78
2022/07/04 02:51:47;;;;;;;9.58;4.62;;;;;;;18.02;100.00;100037.03;1671698;83;21315;-76
2022/07/04 02:54:15;;;;;;;10.00;4.10;;;;;;;18.09;100.00;100035.59;1672716;84;21050;-76
2022/07/04 02:56:42;;;;;;;7.75;3.98;;;;;;;18.14;100.00;100035.77;1662798;86;21077;-77
2022/07/04 02:59:09;;;;;;;8.90;4.30;;;;;;;18.20;100.00;100039.52;1660926;86;21026;-78
2022/07/04 03:01:36;;;;;;;7.78;3.90;;;;;;;18.26;100.00;100037.81;1659888;86;21038;-79
2022/07/04 03:04:04;;;;;;;8.00;3.90;;;;;;;18.31;100.00;100042.06;1660149;86;21018;-78
2022/07/04 03:06:31;;;;;;;9.68;4.00;;;;;;;18.36;100.00;100042.24;1659992;86;21501;-78
2022/07/04 03:08:58;;;;;;;8.38;4.25;;;;;;;18.41;100.00;100042.42;1660124;86;21588;-77
2022/07/04 03:11:25;;;;;;;7.47;3.77;;;;;;;18.45;100.00;100037.34;1660089;86;21030;-78
2022/07/04 03:13:52;;;;;;;9.03;3.62;;;;;;;18.49;100.00;100038.59;1659826;86;21003;-77
2022/07/04 03:16:19;;;;;;;9.05;3.90;;;;;;;18.53;100.00;100041.17;1660300;86;21058;-76
2022/07/04 03:18:47;;;;;;;6.58;4.20;;;;;;;18.57;100.00;100039.15;1659845;86;21101;-78
2022/07/04 03:21:14;;;;;;;8.70;4.10;;;;;;;18.66;100.00;100045.69;1660473;86;21035;-76
2022/07/04 03:23:41;;;;;;;7.22;3.72;;;;;;;18.73;100.00;100046.47;1659916;86;21022;-76
2022/07/04 03:26:09;;;;;;;7.60;3.62;;;;;;;18.81;100.00;100042.09;1660390;86;21042;-77
2022/07/04 03:28:36;;;;;;;6.92;3.87;;;;;;;18.87;100.00;100041.74;1660292;86;21089;-76
2022/07/04 03:31:03;;;;;;;5.60;3.65;;;;;;;18.92;100.00;100037.25;1660188;86;21093;-76
2022/07/04 03:33:30;;;;;;;8.13;3.80;;;;;;;18.99;100.00;100035.83;1660173;86;21046;-76
2022/07/04 03:35:57;;;;;;;9.05;4.05;;;;;;;19.06;100.00;100044.81;1660318;85;21070;-77
2022/07/04 03:38:25;;;;;;;8.63;4.25;;;;;;;19.14;100.00;100042.30;1660165;86;21031;-77
2022/07/04 03:40:51;;;;;;;9.15;3.70;;;;;;;19.23;100.00;100040.95;1660331;86;21030;-77
2022/07/04 03:43:18;;;;;;;7.20;4.10;;;;;;;19.35;100.00;100043.75;1660240;86;21057;-75
2022/07/04 03:45:45;;;;;;;8.53;4.70;;;;;;;19.46;100.00;100044.37;1660433;85;21552;-77
2022/07/04 03:48:12;;;;;;;7.17;4.53;;;;;;;19.57;100.00;100035.91;1660508;86;21014;-77
2022/07/04 03:50:40;;;;;;;10.32;4.80;;;;;;;19.67;100.00;100039.46;1664584;86;21085;-78
2022/07/04 03:53:07;;;;;;;12.10;5.33;;;;;;;;;;1664564;85;21065;-77
2022/07/04 03:55:34;;;;;;;11.18;5.00;;;;;;;19.84;100.00;100042.44;1634177;88;21045;-76
2022/07/04 03:58:04;;;;;;;12.00;5.30;;;;;;;19.91;100.00;100045.93;1664428;86;21050;-78
2022/07/04 04:00:31;;;;;;;14.40;5.85;;;;;;;19.98;100.00;100040.36;1664524;86;21058;-78
2022/07/04 04:02:58;;;;;;;12.00;5.80;;;;;;;20.05;100.00;100038.35;1664412;86;21077;-78
2022/07/04 04:05:30;;;;;;;12.90;5.60;;;;;;;20.13;100.00;100041.29;1664706;86;21045;-78
2022/07/04 04:07:58;;;;;;;10.95;5.90;;;;;;;20.20;100.00;100038.77;1664596;85;21532;-78
2022/07/04 04:10:27;;;;;;;10.32;5.28;;;;;;;20.29;100.00;100037.34;1664586;86;21055;-78
2022/07/04 04:12:54;;;;;;;11.70;5.37;;;;;;;20.39;100.00;100038.13;1664578;86;21006;-76
2022/07/04 04:15:21;;;;;;;10.43;5.22;;;;;;;20.49;100.00;100045.26;1664650;86;21031;-78
2022/07/04 04:17:48;;;;;;;10.72;5.12;;;;;;;20.62;100.00;100055.76;1664786;86;21085;-76
2022/07/04 04:20:14;;;;;;;9.45;5.03;;;;;;;20.75;100.00;100053.31;1664930;86;21014;-77
2022/07/04 04:22:42;;;;;;;19.52;5.92;;;;;;;20.91;100.00;100059.50;1664940;86;21528;-77
2022/07/04 04:25:09;;;;;;;12.63;5.60;;;;;;;21.11;100.00;100061.05;1664571;86;21551;-78
2022/07/04 04:27:36;;;;;;;17.20;6.05;;;;;;;21.30;100.00;100059.83;1664776;86;21050;-78
2022/07/04 04:30:05;;;;;;;13.93;5.37;;;;;;;21.54;100.00;100058.42;1664468;86;21589;-77
2022/07/04 04:32:32;;;;;;;8.48;4.83;;;;;;;21.77;100.00;100065.23;1664584;86;21086;-77
2022/07/04 04:34:59;;;;;;;12.25;5.75;;;;;;;22.03;100.00;100069.02;1664895;86;21022;-78
2022/07/04 04:37:26;;;;;;;10.72;5.22;;;;;;;22.30;100.00;100066.53;1653375;86;21038;-78
2022/07/04 04:39:53;;;;;;;11.53;5.60;;;;;;;22.58;100.00;100067.58;1664439;86;21145;-78
2022/07/04 04:42:20;;;;;;;9.85;5.30;;;;;;;22.84;100.00;100073.80;1665033;86;21453;-78
2022/07/04 04:44:47;;;;;;;10.40;5.28;;;;;;;23.10;100.00;100076.95;1664813;86;21018;-77
2022/07/04 04:47:14;;;;;;;9.75;5.05;;;;;;;23.40;100.00;100081.25;1664793;85;21564;-79
2022/07/04 04:49:41;;;;;;;9.13;5.22;;;;;;;23.67;100.00;100085.45;1663915;84;21050;-79
2022/07/04 04:52:09;;;;;;;11.80;5.40;;;;;;;23.96;100.00;100087.51;1660051;86;21572;-77
2022/07/04 04:54:36;;;;;;;10.75;5.12;;;;;;;24.24;100.00;100088.34;1660231;85;21062;-78
2022/07/04 04:57:03;;;;;;;13.48;7.80;;;;;;;24.53;100.00;100091.70;1654605;86;21075;-77
2022/07/04 04:59:31;;;;;;;40.40;36.05;;;;;;;24.78;100.00;100095.23;1645424;86;21038;-77
2022/07/04 05:01:58;;;;;;;46.23;37.10;;;;;;;25.02;100.00;100094.87;1645251;86;21113;-74
2022/07/04 05:04:25;;;;;;;15.30;10.28;;;;;;;25.22;100.00;100103.86;1645122;86;21549;-75
2022/07/04 05:06:52;;;;;;;11.43;6.72;;;;;;;25.41;100.00;100104.81;1645544;87;21050;-80
2022/07/04 05:09:19;;;;;;;17.85;13.05;;;;;;;25.62;100.00;100107.14;1645306;87;21082;-79
2022/07/04 05:11:47;;;;;;;13.25;7.47;;;;;;;25.85;100.00;100112.25;1648970;86;21453;-77
2022/07/04 05:14:15;;;;;;;22.90;10.78;;;;;;;26.08;100.00;100106.82;1660156;85;21082;-79
2022/07/04 05:16:44;;;;;;;11.70;5.67;;;;;;;26.26;100.00;100118.48;1659764;86;21043;-77
2022/07/04 05:19:11;;;;;;;14.68;7.72;;;;;;;26.43;100.00;100119.07;1660063;86;21043;-79
2022/07/04 05:21:38;;;;;;;36.93;27.75;;;;;;;26.62;100.00;100114.43;1660440;86;21089;-74
2022/07/04 05:24:05;;;;;;;20.20;14.10;;;;;;;26.85;100.00;100117.20;1660330;85;21034;-72
2022/07/04 05:26:33;;;;;;;15.45;7.87;;;;;;;27.08;100.00;100114.42;1660234;86;21050;-75
2022/07/04 05:29:00;;;;;;;30.68;24.55;;;;;;;27.33;100.00;100128.02;1660046;86;21050;-74
2022/07/04 05:31:27;;;;;;;37.55;28.35;;;;;;;27.51;100.00;100132.95;1660167;86;21062;-78
2022/07/04 05:33:54;;;;;;;159.85;144.37;;;;;;;27.63;100.00;100134.87;1639735;86;21061;-80
2022/07/04 05:36:22;;;;;;;31.40;27.50;;;;;;;27.81;100.00;100129.81;1631927;87;21068;-78
2022/07/04 05:38:50;;;;;;;39.18;29.12;;;;;;;28.04;100.00;100125.57;1625667;87;21567;-78
2022/07/04 05:41:16;;;;;;;20.00;12.82;;;;;;;28.26;100.00;100134.92;1630313;87;21053;-78
2022/07/04 05:43:44;;;;;;;21.77;10.53;;;;;;;28.51;100.00;100131.71;1629703;87;21764;-80
2022/07/04 05:46:11;;;;;;;16.60;7.72;;;;;;;28.73;100.00;100133.50;1635762;87;21484;-80
2022/07/04 05:48:38;;;;;;;14.55;7.75;;;;;;;28.91;100.00;100136.70;1626723;87;21074;-79
2022/07/04 05:51:05;;;;;;;18.27;8.93;;;;;;;29.10;100.00;100127.90;1612107;86;21025;-79
2022/07/04 05:53:33;;;;;;;10.55;6.15;;;;;;;29.32;100.00;100127.99;1589247;88;21093;-78
2022/07/04 05:56:00;;;;;;;10.85;5.30;;;;;;;29.50;100.00;100123.62;1585976;90;21080;-78
2022/07/04 05:58:27;;;;;;;9.40;4.70;;;;;;;29.69;100.00;100123.15;1585535;90;21069;-77
2022/07/04 06:00:54;;;;;;;9.83;5.08;;;;;;;29.82;100.00;100128.59;1585357;90;21570;-78
2022/07/04 06:03:21;;;;;;;11.57;4.97;;;;;;;29.93;100.00;100126.50;1585491;89;21573;-78
2022/07/04 06:05:49;;;;;;;8.28;4.12;;;;;;;30.10;100.00;100124.05;1610212;88;21082;-74
2022/07/04 06:08:15;;;;;;;7.62;4.03;;;;;;;30.25;100.00;100123.56;1616717;89;21081;-75
2022/07/04 06:10:42;;;;;;;21.75;4.67;;;;;;;30.32;100.00;100125.41;1616348;89;21114;-78
2022/07/04 06:13:09;;;;;;;15.75;6.20;;;;;;;30.36;100.00;100128.45;1615445;87;21043;-78
2022/07/04 06:15:36;;;;;;;15.63;5.70;;;;;;;30.37;100.00;100130.95;1604749;88;21038;-78
2022/07/04 06:18:03;;;;;;;7.33;4.60;;;;;;;30.50;100.00;100132.14;1602815;88;21048;-78
2022/07/04 06:20:31;;;;;;;8.65;4.62;;;;;;;30.73;100.00;100130.38;1634297;86;21002;-76
2022/07/04 06:22:58;;;;;;;9.18;4.33;;;;;;;30.95;100.00;100129.78;1634469;86;21098;-77
2022/07/04 06:25:25;;;;;;;7.83;4.40;;;;;;;30.97;100.00;100134.49;1629999;86;21018;-82
2022/07/04 06:27:52;;;;;;;12.45;4.10;;;;;;;31.03;100.00;100132.44;1613497;88;21040;-81
2022/07/04 06:30:19;;;;;;;7.00;4.03;;;;;;;31.14;100.00;100124.70;1634541;86;21065;-79
2022/07/04 06:32:55;;;;;;;12.23;7.90;;;;;;;31.31;100.00;100131.93;1607928;88;21079;-72
2022/07/04 06:35:45;;;;;;;14.63;5.62;;;;;;;31.55;100.00;100126.20;1586236;89;20999;-73
2022/07/04 06:38:25;;;;;;;12.47;7.40;;;;;;;31.71;100.00;100130.88;1607505;88;21010;-81
2022/07/04 06:41:11;;;;;;;10.20;6.08;;;;;;;31.87;100.00;100131.39;1639793;86;21083;-77
2022/07/04 06:43:39;;;;;;;36.58;22.85;;;;;;;32.02;98.84;100130.84;1602356;88;21087;-76
2022/07/04 06:46:07;;;;;;;14.15;8.28;;;;;;;32.16;100.00;100126.08;1587346;88;21540;-74
2022/07/04 06:48:33;;;;;;;12.28;5.55;;;;;;;32.33;99.34;100129.05;1628030;88;21077;-74
2022/07/04 06:51:00;;;;;;;12.53;6.10;;;;;;;32.49;97.07;100124.47;1637051;85;21030;-81
2022/07/04 06:53:27;;;;;;;14.43;6.45;;;;;;;32.64;95.99;100124.14;1658704;87;21018;-81
2022/07/04 06:55:54;;;;;;;16.95;6.90;;;;;;;32.83;96.91;100123.96;1653592;85;21057;-81
2022/07/04 06:58:21;;;;;;;11.45;6.65;;;;;;;33.03;94.37;100124.00;1690081;85;21013;-80
2022/07/04 07:00:48;;;;;;;14.25;5.90;;;;;;;33.19;92.46;100123.63;1642440;87;21064;-81
2022/07/04 07:03:15;;;;;;;12.30;5.20;;;;;;;33.25;85.91;100122.34;1641822;87;21042;-83
2022/07/04 07:05:42;;;;;;;7.33;4.78;;;;;;;33.26;89.36;100122.02;1647194;87;21050;-82
2022/07/04 07:08:10;;;;;;;10.68;4.87;;;;;;;33.44;90.74;100124.33;1651305;86;21097;-81
2022/07/04 07:10:36;;;;;;;34.63;6.53;;;;;;;33.59;91.05;100125.89;1658255;87;21003;-81
2022/07/04 07:13:03;;;;;;;19.77;4.97;;;;;;;33.59;85.39;100122.23;1674459;84;21076;-87
2022/07/04 07:15:35;;;;;;;12.13;7.35;;;;;;;33.39;83.90;100119.44;1705389;84;21037;-84
2022/07/04 07:18:03;;;;;;;30.48;6.55;;;;;;;33.14;84.24;100123.77;1677255;84;21018;-78
2022/07/04 07:20:31;;;;;;;9.60;4.80;;;;;;;32.95;85.37;100130.95;1640820;86;21050;-79
2022/07/04 07:22:58;;;;;;;9.53;4.80;;;;;;;32.83;83.40;100121.71;1640374;87;21151;-82
2022/07/04 07:25:25;;;;;;;12.37;4.92;;;;;;;32.77;84.53;100125.80;1640883;87;21031;-83
2022/07/04 07:27:52;;;;;;;8.45;4.47;;;;;;;32.77;87.48;100131.40;1640602;87;21098;-84
2022/07/04 07:30:22;;;;;;;9.23;5.10;;;;;;;32.84;85.92;100133.17;1640732;86;21087;-83
2022/07/04 07:32:49;;;;;;;28.27;21.40;;;;;;;32.86;84.34;100123.88;1618671;87;21138;-82
2022/07/04 07:35:17;;;;;;;28.45;9.25;;;;;;;32.81;85.78;100130.45;1609226;89;21071;-84
2022/07/04 07:37:44;;;;;;;10.43;6.50;;;;;;;32.85;87.79;100132.86;1640437;87;21051;-84
2022/07/04 07:40:11;;;;;;;9.80;5.53;;;;;;;33.01;87.32;100121.28;1640572;87;21031;-84
2022/07/04 07:42:39;;;;;;;8.13;5.15;;;;;;;33.20;83.52;100126.13;1640292;87;21182;-82
2022/07/04 07:45:08;;;;;;;10.32;5.45;;;;;;;33.37;80.57;100124.55;1640163;87;21131;-84
2022/07/04 07:47:35;;;;;;;9.40;5.12;;;;;;;33.41;81.88;100117.95;1640030;87;21696;-85
2022/07/04 07:50:05;;;;;;;8.98;5.00;;;;;;;33.54;83.26;100120.42;1616842;88;21657;-85
2022/07/04 07:52:33;;;;;;;10.45;5.30;;;;;;;33.72;81.84;100116.31;1635268;88;21111;-83
2022/07/04 07:55:00;;;;;;;13.58;5.85;;;;;;;33.94;81.75;100114.79;1635387;88;22606;-83
2022/07/04 07:57:27;;;;;;;19.17;10.23;;;;;;;34.16;80.53;100108.83;1635325;88;21098;-82
2022/07/04 07:59:54;;;;;;;40.40;10.60;;;;;;;34.32;78.87;100106.39;1592641;90;21644;-79
2022/07/04 08:04:34;;;;;;;12.70;6.30;;;;;;;34.48;80.44;100113.75;1578128;91;21121;-77
2022/07/04 08:04:50;;;;;;;15.28;6.85;;;;;;;34.68;75.09;100109.44;1633709;88;21067;-88
2022/07/04 08:07:18;;;;;;;10.75;5.72;;;;;;;34.51;70.30;100110.26;1634638;88;21219;-78
2022/07/04 08:09:47;;;;;;;7.87;5.40;;;;;;;34.45;73.53;100104.58;1633296;88;21059;-76
2022/07/04 08:12:15;;;;;;;9.18;5.33;;;;;;;34.50;71.89;100098.21;1619355;88;21093;-79
2022/07/04 08:14:42;;;;;;;14.23;6.60;;;;;;;34.60;68.93;100099.84;1594063;90;21644;-80
2022/07/04 08:17:10;;;;;;;17.10;7.80;;;;;;;34.71;70.05;100098.98;1613770;87;21081;-76
2022/07/04 08:19:37;;;;;;;12.28;7.22;;;;;;;34.88;71.92;100100.33;1638451;88;21073;-74
2022/07/04 08:22:05;;;;;;;8.65;5.40;;;;;;;35.10;70.82;100104.11;1637753;86;21046;-75
2022/07/04 08:24:32;;;;;;;8.25;5.45;;;;;;;35.22;68.93;100100.61;1617787;89;21505;-75
2022/07/04 08:26:59;;;;;;;9.10;6.00;;;;;;;35.22;63.29;100097.80;1634218;86;21100;-74
2022/07/04 08:29:30;;;;;;;7.25;5.20;;;;;;;35.06;64.82;100099.73;1647593;86;21499;-75
2022/07/04 08:31:55;;;;;;;10.08;5.65;;;;;;;35.12;62.94;100096.16;1677989;85;21073;-75
2022/07/04 08:34:23;;;;;;;8.43;5.22;;;;;;;34.96;60.45;100092.48;1671576;84;21045;-78
2022/07/04 08:36:50;;;;;;;13.83;6.50;;;;;;;34.89;62.02;100088.54;1651854;86;21030;-76
2022/07/04 08:39:16;;;;;;;22.58;14.63;;;;;;;34.96;63.85;100091.07;1648758;86;21500;-76
2022/07/04 08:41:43;;;;;;;13.88;6.80;;;;;;;35.16;65.31;100090.11;1653479;87;21097;-74
2022/07/04 08:44:10;;;;;;;12.73;6.03;;;;;;;35.40;60.10;100085.91;1677931;85;21011;-75
2022/07/04 08:46:41;;;;;;;9.20;5.40;;;;;;;35.55;60.55;100079.12;1678206;85;21051;-75
2022/07/04 08:49:22;;;;;;;9.23;5.12;;;;;;;35.77;62.19;100082.02;1633309;86;21141;-76
2022/07/04 08:52:02;;;;;;;7.10;4.87;;;;;;;35.95;60.37;100082.73;1595822;88;21583;-75
2022/07/04 09:00:01;;;;;;;13.48;6.33;;;;;;;35.85;62.76;100071.31;1596714;90;21055;-76
2022/07/04 09:02:28;;;;;;;7.03;4.75;;;;;;;36.00;63.83;100069.31;1595123;90;21335;-77
2022/07/04 09:04:55;;;;;;;8.80;5.08;;;;;;;36.09;58.69;100060.22;1595261;90;21083;-78
2022/07/04 09:07:22;;;;;;;14.50;5.17;;;;;;;36.25;59.88;100066.67;1594575;90;21057;-78
2022/07/04 09:09:50;;;;;;;8.65;5.10;;;;;;;36.28;58.28;100065.97;1593941;90;21137;-78
2022/07/04 09:12:17;;;;;;;14.73;7.25;;;;;;;36.39;60.65;100067.78;1594838;90;21023;-78
2022/07/04 09:14:45;;;;;;;16.52;6.45;;;;;;;36.52;58.95;100068.08;1574246;90;21122;-80
2022/07/04 09:17:12;;;;;;;15.70;6.53;;;;;;;36.51;55.90;100073.46;1574751;90;21086;-80
2022/07/04 09:19:40;;;;;;;16.05;6.35;;;;;;;36.52;53.87;100077.94;1595206;90;21150;-77
2022/07/04 09:22:11;;;;;;;8.60;4.90;;;;;;;36.45;51.30;100077.67;1554647;90;21139;-77
2022/07/04 09:24:51;;;;;;;16.62;11.05;;;;;;;36.27;52.53;100069.38;1593953;90;21053;-77
2022/07/04 09:27:39;;;;;;;23.22;17.60;;;;;;;35.97;48.76;100065.77;1551532;92;21133;-79
2022/07/04 09:30:07;;;;;;;9.55;6.22;;;;;;;35.82;50.69;100076.20;1552449;92;21085;-82
2022/07/04 09:32:42;;;;;;;7.30;5.03;;;;;;;35.92;50.72;100070.19;1551772;92;21169;-79
2022/07/04 09:35:20;;;;;;;10.00;5.85;;;;;;;35.87;48.15;100076.83;1552201;92;21146;-83
2022/07/04 09:37:57;;;;;;;10.35;5.28;;;;;;;35.83;50.86;100066.03;1552600;92;21239;-81
2022/07/04 09:41:24;;;;;;;8.23;5.40;;;;;;;35.97;51.02;100063.55;1533840;94;21135;-88
2022/07/04 09:43:12;;;;;;;37.42;33.38;;;;;;;35.99;52.06;100068.25;1494605;96;21144;-85
2022/07/04 09:45:47;;;;;;;15.85;10.50;;;;;;;36.14;51.69;100073.84;1511825;95;21122;-87
2022/07/04 09:48:33;;;;;;;;;;;;;;;;;;;;;
2022/07/04 09:50:51;;;;;;;8.90;5.10;;;;;;;36.55;48.91;100067.40;1432750;98;21648;-75
2022/07/04 09:53:18;;;;;;;11.00;4.90;;;;;;;36.81;50.20;100061.54;1422955;101;21104;-76
2022/07/04 09:55:49;;;;;;;10.90;4.90;;;;;;;37.11;46.37;100074.02;1423219;101;21103;-77
2022/07/04 09:58:16;;;;;;;10.53;5.10;;;;;;;37.35;44.95;100068.23;1423234;101;21181;-86
2022/07/04 10:00:46;;;;;;;6.05;4.50;;;;;;;37.51;44.15;100063.52;1424817;100;21197;-82
2022/07/04 10:03:25;;;;;;;12.80;5.03;;;;;;;37.50;45.09;100061.05;1424995;101;21128;-82
2022/07/04 10:06:07;;;;;;;10.63;5.25;;;;;;;37.56;44.87;100060.47;1400085;101;21109;-81
2022/07/04 10:08:34;;;;;;;10.30;5.10;;;;;;;37.71;45.98;100056.12;1390175;101;21157;-83
2022/07/04 10:11:03;;;;;;;12.93;5.70;;;;;;;37.73;42.96;100053.77;1398757;101;21166;-85
2022/07/04 10:13:30;;;;;;;10.85;5.30;;;;;;;37.78;44.33;100049.90;1419211;101;21170;-79
2022/07/04 10:15:57;;;;;;;8.10;4.80;;;;;;;37.78;44.09;100052.12;1427564;99;21198;-80
2022/07/04 10:18:26;;;;;;;8.30;4.85;;;;;;;37.90;43.60;100047.05;1404825;101;21709;-75
2022/07/04 10:20:53;;;;;;;13.53;5.20;;;;;;;38.03;43.52;100047.03;1444497;99;21093;-75
2022/07/04 10:23:21;;;;;;;11.03;4.78;;;;;;;38.10;43.44;100037.36;1473001;96;21206;-75
2022/07/04 10:25:51;;;;;;;6.15;4.50;;;;;;;38.11;42.17;100034.82;1455925;98;21094;-75
2022/07/04 10:28:18;;;;;;;7.22;4.60;;;;;;;38.10;39.71;100031.72;1456557;98;21117;-74
2022/07/04 10:30:53;;;;;;;10.75;4.55;;;;;;;37.79;37.88;100026.16;1456197;98;21643;-75
2022/07/04 10:33:26;;;;;;;10.05;4.42;;;;;;;37.51;38.23;100028.28;1455895;98;21225;-75
2022/07/04 10:36:01;;;;;;;7.28;4.58;;;;;;;37.34;39.51;100022.28;1426177;100;21134;-76
2022/07/04 10:41:08;;;;;;;20.05;5.35;;;;;;;37.67;41.98;100013.49;1395483;103;21165;-75
2022/07/04 10:43:54;;;;;;;9.25;5.00;;;;;;;37.57;41.40;100016.98;1395225;102;21633;-76
2022/07/04 10:46:32;;;;;;;8.50;4.53;;;;;;;37.45;40.83;100014.77;1419126;100;21256;-76
2022/07/04 10:49:25;;;;;;;7.87;4.55;;;;;;;37.39;42.34;100009.36;1430601;100;21215;-78
2022/07/04 10:51:54;;;;;;;;;;;;;;;37.33;40.76;100015.02;1428863;99;21162;-77
2022/07/04 10:54:35;;;;;;;8.80;4.60;;;;;;;37.10;40.12;100013.22;1456004;97;20158;-77
2022/07/04 10:57:21;;;;;;;9.50;4.58;;;;;;;37.01;43.56;100010.50;1455190;99;21174;-75
2022/07/04 11:00:00;;;;;;;8.33;5.58;;;;;;;37.17;43.76;100005.63;1456053;99;21137;-77
2022/07/04 11:02:33;;;;;;;9.40;5.03;;;;;;;37.38;40.65;100002.09;1459501;94;21117;-84
2022/07/04 11:05:12;;;;;;;11.28;5.17;;;;;;;37.09;40.70;100007.33;1430270;100;21223;-82
2022/07/04 11:07:45;;;;;;;10.50;4.95;;;;;;;36.71;41.80;100008.45;1429111;100;21127;-79
2022/07/04 11:10:21;;;;;;;7.03;4.53;;;;;;;36.44;43.16;100004.22;1429749;100;21650;-79
2022/07/04 11:13:01;;;;;;;10.88;5.90;;;;;;;36.57;45.57;100003.70;1429836;100;21195;-81
2022/07/04 11:15:36;;;;;;;9.70;4.92;;;;;;;36.82;42.88;99998.97;1429961;100;21179;-79
2022/07/04 11:18:13;;;;;;;6.90;4.90;;;;;;;36.65;43.75;99998.54;1430087;100;21085;-79
2022/07/04 11:20:47;;;;;;;8.90;5.17;;;;;;;36.51;43.57;99995.22;1429945;100;21162;-79
2022/07/04 11:23:15;;;;;;;9.83;5.20;;;;;;;36.47;44.72;99983.83;1430261;100;21690;-76
2022/07/04 11:25:45;;;;;;;7.92;4.75;;;;;;;36.63;46.00;99989.02;1430946;100;21136;-83
2022/07/04 11:28:24;;;;;;;5.90;4.60;;;;;;;36.90;46.95;99988.16;1431573;100;21181;-80
2022/07/04 11:31:02;;;;;;;6.85;4.80;;;;;;;37.15;43.88;99977.76;1431703;100;21112;-74
2022/07/04 11:33:33;;;;;;;5.95;4.72;;;;;;;37.31;39.57;99977.05;1453101;98;21116;-73
2022/07/04 11:36:16;;;;;;;9.50;4.90;;;;;;;37.34;42.14;99978.58;1457861;99;21064;-76
2022/07/04 11:38:50;;;;;;;9.43;5.90;;;;;;;37.59;43.51;99976.57;1492821;94;21154;-75